Terminal Aerodrome Forecast
Issued by NWS

Current Version | Previous Version | Text Only | Print | Product List | Glossary On
Versions: 1 2 3 4 5 6 7 8 9 10 11 12 13 14 15 16 17 18
060
FTUS41 KBTV 291137
TAFMPV
TAF
KMPV 291137Z 2912/3012 33005KT P6SM BKN015 OVC025
      TEMPO 2912/2914 5SM BR BKN009 OVC015
     FM291800 33010G18KT P6SM OVC025
     FM292100 33012G20KT P6SM OVC035
     FM292300 33008G17KT P6SM OVC045
     FM300800 32004KT P6SM BKN090
     FM301000 VRB03KT P6SM SCT100=

USA.gov is the U.S. government's official web portal to all federal, state and local government web resources and services.